sensor_id;sensor_type;location;lat;lon;timestamp;pressure;altitude;pressure_sealevel;temperature;humidity
38227;BME280;24026;49.446;8.576;2023-02-28T00:00:55;101483.81;;;11.93;27.79
38227;BME280;24026;49.446;8.576;2023-02-28T00:03:16;101486.75;;;11.91;28.26
38227;BME280;24026;49.446;8.576;2023-02-28T00:05:37;101477.88;;;11.91;28.29
38227;BME280;24026;49.446;8.576;2023-02-28T00:07:57;101480.78;;;11.89;28.44
38227;BME280;24026;49.446;8.576;2023-02-28T00:10:20;101482.84;;;11.87;28.31
38227;BME280;24026;49.446;8.576;2023-02-28T00:12:42;101483.06;;;11.85;28.33
38227;BME280;24026;49.446;8.576;2023-02-28T00:15:08;101483.88;;;11.86;28.13
38227;BME280;24026;49.446;8.576;2023-02-28T00:17:28;101483.28;;;11.84;27.95
38227;BME280;24026;49.446;8.576;2023-02-28T00:19:50;101477.38;;;11.82;28.29
38227;BME280;24026;49.446;8.576;2023-02-28T00:22:11;101475.53;;;11.82;28.46
38227;BME280;24026;49.446;8.576;2023-02-28T00:24:31;101479.03;;;11.83;28.45
38227;BME280;24026;49.446;8.576;2023-02-28T00:26:51;101482.56;;;11.77;28.15
38227;BME280;24026;49.446;8.576;2023-02-28T00:29:12;101477.47;;;11.75;28.26
38227;BME280;24026;49.446;8.576;2023-02-28T00:31:32;101474.00;;;11.75;28.25
38227;BME280;24026;49.446;8.576;2023-02-28T00:33:53;101474.78;;;11.75;28.39
38227;BME280;24026;49.446;8.576;2023-02-28T00:36:13;101476.88;;;11.73;28.28
38227;BME280;24026;49.446;8.576;2023-02-28T00:38:34;101473.00;;;11.69;28.37
38227;BME280;24026;49.446;8.576;2023-02-28T00:40:54;101479.19;;;11.70;28.43
38227;BME280;24026;49.446;8.576;2023-02-28T00:43:15;101477.53;;;11.68;28.43
38227;BME280;24026;49.446;8.576;2023-02-28T00:45:35;101482.06;;;11.68;28.46
38227;BME280;24026;49.446;8.576;2023-02-28T00:47:56;101477.16;;;11.65;28.50
38227;BME280;24026;49.446;8.576;2023-02-28T00:50:18;101480.41;;;11.67;28.40
38227;BME280;24026;49.446;8.576;2023-02-28T00:52:38;101481.06;;;11.62;28.60
38227;BME280;24026;49.446;8.576;2023-02-28T00:54:59;101481.06;;;11.62;28.73
38227;BME280;24026;49.446;8.576;2023-02-28T00:57:19;101482.56;;;11.58;28.75
38227;BME280;24026;49.446;8.576;2023-02-28T00:59:39;101477.25;;;11.58;28.76
38227;BME280;24026;49.446;8.576;2023-02-28T01:02:00;101479.91;;;11.58;28.69
38227;BME280;24026;49.446;8.576;2023-02-28T01:04:20;101477.25;;;11.58;28.53
38227;BME280;24026;49.446;8.576;2023-02-28T01:06:41;101488.91;;;11.57;28.80
38227;BME280;24026;49.446;8.576;2023-02-28T01:09:02;101484.66;;;11.56;28.74
38227;BME280;24026;49.446;8.576;2023-02-28T01:11:23;101475.47;;;11.52;28.88
38227;BME280;24026;49.446;8.576;2023-02-28T01:13:45;101484.25;;;11.53;28.78
38227;BME280;24026;49.446;8.576;2023-02-28T01:16:06;101484.50;;;11.51;28.82
38227;BME280;24026;49.446;8.576;2023-02-28T01:18:27;101480.19;;;11.50;28.75
38227;BME280;24026;49.446;8.576;2023-02-28T01:20:48;101474.88;;;11.50;28.81
38227;BME280;24026;49.446;8.576;2023-02-28T01:23:09;101477.75;;;11.48;28.63
38227;BME280;24026;49.446;8.576;2023-02-28T01:25:29;101479.81;;;11.46;28.90
38227;BME280;24026;49.446;8.576;2023-02-28T01:27:49;101481.66;;;11.46;28.94
38227;BME280;24026;49.446;8.576;2023-02-28T01:30:10;101475.97;;;11.42;28.89
38227;BME280;24026;49.446;8.576;2023-02-28T01:32:31;101478.41;;;11.44;29.20
38227;BME280;24026;49.446;8.576;2023-02-28T01:34:51;101474.94;;;11.43;29.02
38227;BME280;24026;49.446;8.576;2023-02-28T01:37:12;101475.38;;;11.40;29.07
38227;BME280;24026;49.446;8.576;2023-02-28T01:39:32;101478.47;;;11.37;29.19
38227;BME280;24026;49.446;8.576;2023-02-28T01:41:52;101471.91;;;11.40;28.94
38227;BME280;24026;49.446;8.576;2023-02-28T01:47:10;101474.41;;;11.35;29.16
38227;BME280;24026;49.446;8.576;2023-02-28T01:49:31;101471.97;;;11.33;29.33
38227;BME280;24026;49.446;8.576;2023-02-28T01:51:54;101466.66;;;11.33;29.16
38227;BME280;24026;49.446;8.576;2023-02-28T01:54:18;101469.31;;;11.33;29.17
38227;BME280;24026;49.446;8.576;2023-02-28T01:56:45;101470.34;;;11.32;29.40
38227;BME280;24026;49.446;8.576;2023-02-28T01:59:06;101464.44;;;11.30;29.22
38227;BME280;24026;49.446;8.576;2023-02-28T02:01:27;101466.50;;;11.28;29.34
38227;BME280;24026;49.446;8.576;2023-02-28T02:03:55;101465.44;;;11.29;29.39
38227;BME280;24026;49.446;8.576;2023-02-28T02:06:15;101464.84;;;11.27;29.61
38227;BME280;24026;49.446;8.576;2023-02-28T02:08:36;101461.97;;;11.28;29.32
38227;BME280;24026;49.446;8.576;2023-02-28T02:10:59;101461.19;;;11.28;29.28
38227;BME280;24026;49.446;8.576;2023-02-28T02:21:16;101448.16;;;11.20;29.22
38227;BME280;24026;49.446;8.576;2023-02-28T02:24:09;101450.44;;;11.16;29.45
38227;BME280;24026;49.446;8.576;2023-02-28T02:35:25;101448.00;;;11.15;29.56
38227;BME280;24026;49.446;8.576;2023-02-28T02:38:10;101444.72;;;11.12;29.60
38227;BME280;24026;49.446;8.576;2023-02-28T02:40:40;101448.22;;;11.13;29.53
38227;BME280;24026;49.446;8.576;2023-02-28T02:46:17;101449.88;;;11.07;29.61
38227;BME280;24026;49.446;8.576;2023-02-28T02:48:37;101449.25;;;11.12;29.29
38227;BME280;24026;49.446;8.576;2023-02-28T02:51:07;101447.00;;;11.09;29.59
38227;BME280;24026;49.446;8.576;2023-02-28T02:53:40;101454.19;;;11.08;29.69
38227;BME280;24026;49.446;8.576;2023-02-28T02:56:02;101447.22;;;11.07;29.63
38227;BME280;24026;49.446;8.576;2023-02-28T02:58:30;101454.19;;;11.08;29.56
38227;BME280;24026;49.446;8.576;2023-02-28T03:00:54;101455.22;;;11.07;29.77
38227;BME280;24026;49.446;8.576;2023-02-28T03:03:18;101455.44;;;11.06;29.62
38227;BME280;24026;49.446;8.576;2023-02-28T03:05:49;101448.72;;;11.03;29.66
38227;BME280;24026;49.446;8.576;2023-02-28T03:08:10;101450.34;;;11.04;29.66
38227;BME280;24026;49.446;8.576;2023-02-28T03:10:38;101446.25;;;11.02;29.84
38227;BME280;24026;49.446;8.576;2023-02-28T03:13:06;101446.75;;;10.92;29.88
38227;BME280;24026;49.446;8.576;2023-02-28T03:16:01;101440.78;;;10.97;29.70
38227;BME280;24026;49.446;8.576;2023-02-28T03:19:00;101442.66;;;10.96;29.78
38227;BME280;24026;49.446;8.576;2023-02-28T03:21:33;101437.31;;;10.96;29.73
38227;BME280;24026;49.446;8.576;2023-02-28T03:24:04;101438.34;;;10.95;29.85
38227;BME280;24026;49.446;8.576;2023-02-28T03:26:27;101435.69;;;10.95;29.81
38227;BME280;24026;49.446;8.576;2023-02-28T03:29:18;101435.69;;;10.95;29.91
38227;BME280;24026;49.446;8.576;2023-02-28T03:31:39;101444.25;;;10.97;29.75
38227;BME280;24026;49.446;8.576;2023-02-28T03:34:06;101443.66;;;10.95;29.86
38227;BME280;24026;49.446;8.576;2023-02-28T03:36:30;101442.84;;;10.94;29.71
38227;BME280;24026;49.446;8.576;2023-02-28T03:38:58;101439.59;;;10.92;29.85
38227;BME280;24026;49.446;8.576;2023-02-28T03:41:27;101441.44;;;10.92;29.73
38227;BME280;24026;49.446;8.576;2023-02-28T03:43:55;101439.00;;;10.90;30.11
38227;BME280;24026;49.446;8.576;2023-02-28T03:46:18;101433.66;;;10.90;29.92
38227;BME280;24026;49.446;8.576;2023-02-28T03:49:09;101440.03;;;10.89;29.95
38227;BME280;24026;49.446;8.576;2023-02-28T03:51:27;101440.03;;;10.89;29.94
38227;BME280;24026;49.446;8.576;2023-02-28T03:53:54;101432.50;;;10.86;30.08
38227;BME280;24026;49.446;8.576;2023-02-28T03:56:24;101433.50;;;10.85;30.00
38227;BME280;24026;49.446;8.576;2023-02-28T03:58:58;101439.88;;;10.84;29.99
38227;BME280;24026;49.446;8.576;2023-02-28T04:01:27;101439.88;;;10.84;29.93
38227;BME280;24026;49.446;8.576;2023-02-28T04:03:50;101439.88;;;10.84;30.04
38227;BME280;24026;49.446;8.576;2023-02-28T04:06:19;101436.38;;;10.84;30.00
38227;BME280;24026;49.446;8.576;2023-02-28T04:08:40;101436.38;;;10.84;29.99
38227;BME280;24026;49.446;8.576;2023-02-28T04:11:04;101441.91;;;10.82;30.04
38227;BME280;24026;49.446;8.576;2023-02-28T04:13:26;101444.59;;;10.82;30.10
38227;BME280;24026;49.446;8.576;2023-02-28T04:15:47;101437.66;;;10.81;30.17
38227;BME280;24026;49.446;8.576;2023-02-28T04:18:08;101438.25;;;10.83;30.04
38227;BME280;24026;49.446;8.576;2023-02-28T04:20:28;101437.66;;;10.81;30.14
38227;BME280;24026;49.446;8.576;2023-02-28T04:22:48;101438.66;;;10.80;30.11
38227;BME280;24026;49.446;8.576;2023-02-28T04:25:09;101437.66;;;10.81;30.33
38227;BME280;24026;49.446;8.576;2023-02-28T04:27:29;101438.66;;;10.80;30.27
38227;BME280;24026;49.446;8.576;2023-02-28T04:29:49;101430.09;;;10.78;29.96
38227;BME280;24026;49.446;8.576;2023-02-28T04:32:10;101440.75;;;10.78;30.29
38227;BME280;24026;49.446;8.576;2023-02-28T04:34:31;101433.78;;;10.77;30.20
38227;BME280;24026;49.446;8.576;2023-02-28T04:36:53;101435.63;;;10.77;30.24
38227;BME280;24026;49.446;8.576;2023-02-28T04:39:15;101439.53;;;10.74;30.18
38227;BME280;24026;49.446;8.576;2023-02-28T04:41:38;101436.28;;;10.72;30.24
38227;BME280;24026;49.446;8.576;2023-02-28T04:43:58;101431.56;;;10.74;30.20
38227;BME280;24026;49.446;8.576;2023-02-28T04:46:19;101434.66;;;10.71;30.28
38227;BME280;24026;49.446;8.576;2023-02-28T04:48:41;101432.00;;;10.71;30.19
38227;BME280;24026;49.446;8.576;2023-02-28T04:51:07;101437.53;;;10.69;30.15
38227;BME280;24026;49.446;8.576;2023-02-28T04:53:28;101437.53;;;10.69;30.32
38227;BME280;24026;49.446;8.576;2023-02-28T04:55:49;101435.69;;;10.70;29.94
38227;BME280;24026;49.446;8.576;2023-02-28T04:58:09;101433.84;;;10.70;30.42
38227;BME280;24026;49.446;8.576;2023-02-28T05:00:30;101438.88;;;10.79;30.28
38227;BME280;24026;49.446;8.576;2023-02-28T05:02:50;101436.91;;;10.92;29.85
38227;BME280;24026;49.446;8.576;2023-02-28T05:05:10;101440.88;;;11.08;29.64
38227;BME280;24026;49.446;8.576;2023-02-28T05:07:36;101439.53;;;11.24;29.41
38227;BME280;24026;49.446;8.576;2023-02-28T05:09:57;101451.56;;;11.45;29.39
38227;BME280;24026;49.446;8.576;2023-02-28T05:12:17;101446.47;;;11.62;29.00
38227;BME280;24026;49.446;8.576;2023-02-28T05:14:37;101445.41;;;11.82;29.03
38227;BME280;24026;49.446;8.576;2023-02-28T05:16:58;101444.25;;;11.96;28.68
38227;BME280;24026;49.446;8.576;2023-02-28T05:19:18;101438.06;;;12.14;28.21
38227;BME280;24026;49.446;8.576;2023-02-28T05:21:49;101449.34;;;12.28;28.14
38227;BME280;24026;49.446;8.576;2023-02-28T05:24:11;101455.06;;;12.44;28.09
38227;BME280;24026;49.446;8.576;2023-02-28T05:26:35;101442.00;;;12.54;27.87
38227;BME280;24026;49.446;8.576;2023-02-28T05:28:56;101453.50;;;12.66;27.72
38227;BME280;24026;49.446;8.576;2023-02-28T05:31:17;101448.66;;;12.75;27.59
38227;BME280;24026;49.446;8.576;2023-02-28T05:33:37;101442.38;;;12.93;27.47
38227;BME280;24026;49.446;8.576;2023-02-28T05:35:58;101453.78;;;13.00;27.37
38227;BME280;24026;49.446;8.576;2023-02-28T05:38:18;101455.28;;;13.08;27.08
38227;BME280;24026;49.446;8.576;2023-02-28T05:40:39;101448.31;;;13.19;27.32
38227;BME280;24026;49.446;8.576;2023-02-28T05:43:00;101448.31;;;13.30;26.90
38227;BME280;24026;49.446;8.576;2023-02-28T05:45:21;101454.59;;;13.36;26.90
38227;BME280;24026;49.446;8.576;2023-02-28T05:47:41;101453.19;;;13.45;26.68
38227;BME280;24026;49.446;8.576;2023-02-28T05:50:02;101452.59;;;13.55;26.63
38227;BME280;24026;49.446;8.576;2023-02-28T05:52:23;101460.03;;;13.65;26.66
38227;BME280;24026;49.446;8.576;2023-02-28T05:54:44;101455.44;;;13.77;26.53
38227;BME280;24026;49.446;8.576;2023-02-28T05:57:06;101450.53;;;13.86;26.43
38227;BME280;24026;49.446;8.576;2023-02-28T05:59:26;101459.72;;;13.90;26.40
38227;BME280;24026;49.446;8.576;2023-02-28T06:01:46;101444.34;;;13.97;26.16
38227;BME280;24026;49.446;8.576;2023-02-28T06:04:10;101443.16;;;14.05;25.95
38227;BME280;24026;49.446;8.576;2023-02-28T06:06:31;101453.44;;;14.13;26.02
38227;BME280;24026;49.446;8.576;2023-02-28T06:08:54;101452.97;;;14.16;26.07
38227;BME280;24026;49.446;8.576;2023-02-28T06:11:15;101455.41;;;14.18;26.02
38227;BME280;24026;49.446;8.576;2023-02-28T06:13:35;101456.09;;;14.25;25.91
38227;BME280;24026;49.446;8.576;2023-02-28T06:15:56;101461.78;;;14.29;25.79
38227;BME280;24026;49.446;8.576;2023-02-28T06:18:17;101465.81;;;14.31;25.66
38227;BME280;24026;49.446;8.576;2023-02-28T06:20:37;101463.47;;;14.35;25.92
38227;BME280;24026;49.446;8.576;2023-02-28T06:22:58;101463.56;;;14.40;25.97
38227;BME280;24026;49.446;8.576;2023-02-28T06:25:18;101470.22;;;14.54;25.64
38227;BME280;24026;49.446;8.576;2023-02-28T06:27:39;101466.63;;;14.60;25.73
38227;BME280;24026;49.446;8.576;2023-02-28T06:29:59;101479.84;;;14.67;25.55
38227;BME280;24026;49.446;8.576;2023-02-28T06:32:20;101477.25;;;14.72;25.24
38227;BME280;24026;49.446;8.576;2023-02-28T06:34:40;101482.09;;;14.58;25.75
38227;BME280;24026;49.446;8.576;2023-02-28T06:37:01;101478.69;;;14.63;25.87
38227;BME280;24026;49.446;8.576;2023-02-28T06:39:22;101480.50;;;14.74;25.70
38227;BME280;24026;49.446;8.576;2023-02-28T06:41:43;101478.28;;;14.88;25.24
38227;BME280;24026;49.446;8.576;2023-02-28T06:44:12;101483.84;;;14.98;25.54
38227;BME280;24026;49.446;8.576;2023-02-28T06:46:32;101487.56;;;14.97;25.15
38227;BME280;24026;49.446;8.576;2023-02-28T06:48:53;101487.78;;;15.13;25.05
38227;BME280;24026;49.446;8.576;2023-02-28T06:51:16;101488.69;;;15.18;25.10
38227;BME280;24026;49.446;8.576;2023-02-28T06:53:37;101490.03;;;15.21;25.14
38227;BME280;24026;49.446;8.576;2023-02-28T06:55:58;101494.03;;;15.18;25.20
38227;BME280;24026;49.446;8.576;2023-02-28T06:58:19;101492.25;;;15.24;25.05
38227;BME280;24026;49.446;8.576;2023-02-28T07:00:42;101488.34;;;15.15;25.24
38227;BME280;24026;49.446;8.576;2023-02-28T07:03:03;101491.94;;;15.04;25.44
38227;BME280;24026;49.446;8.576;2023-02-28T07:05:24;101490.06;;;14.87;25.88
38227;BME280;24026;49.446;8.576;2023-02-28T07:07:44;101492.59;;;14.77;25.87
38227;BME280;24026;49.446;8.576;2023-02-28T07:10:07;101495.22;;;14.60;26.02
38227;BME280;24026;49.446;8.576;2023-02-28T07:12:27;101499.41;;;14.56;26.29
38227;BME280;24026;49.446;8.576;2023-02-28T07:14:48;101500.03;;;14.46;26.35
38227;BME280;24026;49.446;8.576;2023-02-28T07:17:09;101504.59;;;14.45;26.17
38227;BME280;24026;49.446;8.576;2023-02-28T07:19:32;101509.78;;;14.52;26.09
38227;BME280;24026;49.446;8.576;2023-02-28T07:21:52;101513.94;;;14.60;25.88
38227;BME280;24026;49.446;8.576;2023-02-28T07:24:12;101511.97;;;14.67;25.92
38227;BME280;24026;49.446;8.576;2023-02-28T07:26:35;101515.94;;;14.81;25.72
38227;BME280;24026;49.446;8.576;2023-02-28T07:28:56;101517.41;;;14.89;25.57
38227;BME280;24026;49.446;8.576;2023-02-28T07:31:17;101524.00;;;14.98;25.59
38227;BME280;24026;49.446;8.576;2023-02-28T07:33:38;101518.31;;;15.12;24.91
38227;BME280;24026;49.446;8.576;2023-02-28T07:36:04;101512.84;;;15.24;25.23
38227;BME280;24026;49.446;8.576;2023-02-28T07:38:25;101503.66;;;15.36;25.13
38227;BME280;24026;49.446;8.576;2023-02-28T07:40:45;101511.91;;;15.52;24.96
38227;BME280;24026;49.446;8.576;2023-02-28T07:43:06;101512.59;;;15.64;24.84
38227;BME280;24026;49.446;8.576;2023-02-28T07:45:27;101510.06;;;15.74;24.71
38227;BME280;24026;49.446;8.576;2023-02-28T07:47:48;101509.41;;;15.84;24.65
38227;BME280;24026;49.446;8.576;2023-02-28T07:50:11;101517.31;;;15.96;24.51
38227;BME280;24026;49.446;8.576;2023-02-28T07:52:32;101512.06;;;16.06;24.46
38227;BME280;24026;49.446;8.576;2023-02-28T07:54:52;101510.59;;;16.16;24.21
38227;BME280;24026;49.446;8.576;2023-02-28T07:57:13;101521.13;;;16.22;24.20
38227;BME280;24026;49.446;8.576;2023-02-28T07:59:33;101522.25;;;16.32;24.21
38227;BME280;24026;49.446;8.576;2023-02-28T08:01:53;101522.56;;;16.35;24.17
38227;BME280;24026;49.446;8.576;2023-02-28T08:04:14;101526.38;;;16.39;24.29
38227;BME280;24026;49.446;8.576;2023-02-28T08:06:34;101519.53;;;16.26;24.36
38227;BME280;24026;49.446;8.576;2023-02-28T08:08:55;101527.56;;;16.26;24.16
38227;BME280;24026;49.446;8.576;2023-02-28T08:11:17;101519.69;;;16.15;24.59
38227;BME280;24026;49.446;8.576;2023-02-28T08:13:37;101528.41;;;16.05;24.73
38227;BME280;24026;49.446;8.576;2023-02-28T08:16:01;101524.50;;;15.90;24.82
38227;BME280;24026;49.446;8.576;2023-02-28T08:18:22;101519.06;;;15.68;25.13
38227;BME280;24026;49.446;8.576;2023-02-28T08:20:43;101514.59;;;15.52;25.56
38227;BME280;24026;49.446;8.576;2023-02-28T08:23:03;101521.56;;;15.53;25.33
38227;BME280;24026;49.446;8.576;2023-02-28T08:25:23;101522.34;;;15.53;25.34
38227;BME280;24026;49.446;8.576;2023-02-28T08:27:44;101518.06;;;15.52;25.39
38227;BME280;24026;49.446;8.576;2023-02-28T08:30:05;101521.63;;;15.58;25.24
38227;BME280;24026;49.446;8.576;2023-02-28T08:32:25;101516.19;;;15.53;25.26
38227;BME280;24026;49.446;8.576;2023-02-28T08:34:46;101521.56;;;15.53;25.33
38227;BME280;24026;49.446;8.576;2023-02-28T08:37:07;101516.28;;;15.58;25.15
38227;BME280;24026;49.446;8.576;2023-02-28T08:39:27;101511.16;;;15.56;25.29
38227;BME280;24026;49.446;8.576;2023-02-28T08:41:47;101517.84;;;15.54;25.33
38227;BME280;24026;49.446;8.576;2023-02-28T08:44:08;101509.81;;;15.54;25.19
38227;BME280;24026;49.446;8.576;2023-02-28T08:46:28;101515.22;;;15.59;25.18
38227;BME280;24026;49.446;8.576;2023-02-28T08:48:52;101515.03;;;15.66;25.08
38227;BME280;24026;49.446;8.576;2023-02-28T08:51:18;101510.63;;;15.77;24.85
38227;BME280;24026;49.446;8.576;2023-02-28T08:53:42;101512.94;;;15.90;24.80
38227;BME280;24026;49.446;8.576;2023-02-28T08:56:10;101515.75;;;16.00;24.52
38227;BME280;24026;49.446;8.576;2023-02-28T08:58:31;101518.28;;;16.12;24.69
38227;BME280;24026;49.446;8.576;2023-02-28T09:00:52;101505.06;;;16.27;24.32
38227;BME280;24026;49.446;8.576;2023-02-28T09:03:12;101515.16;;;16.42;24.24
38227;BME280;24026;49.446;8.576;2023-02-28T09:05:33;101510.19;;;16.56;23.92
38227;BME280;24026;49.446;8.576;2023-02-28T09:07:53;101515.41;;;16.73;23.99
38227;BME280;24026;49.446;8.576;2023-02-28T09:10:13;101517.72;;;16.87;23.72
38227;BME280;24026;49.446;8.576;2023-02-28T09:12:34;101506.53;;;17.00;23.69
38227;BME280;24026;49.446;8.576;2023-02-28T09:14:55;101505.53;;;17.11;23.46
38227;BME280;24026;49.446;8.576;2023-02-28T09:17:16;101517.38;;;17.15;23.29
38227;BME280;24026;49.446;8.576;2023-02-28T09:19:37;101509.13;;;17.27;23.10
38227;BME280;24026;49.446;8.576;2023-02-28T09:21:57;101513.88;;;17.15;23.37
38227;BME280;24026;49.446;8.576;2023-02-28T09:24:17;101511.72;;;17.12;23.54
38227;BME280;24026;49.446;8.576;2023-02-28T09:26:38;101512.69;;;17.00;23.58
38227;BME280;24026;49.446;8.576;2023-02-28T09:28:58;101506.25;;;16.96;23.59
38227;BME280;24026;49.446;8.576;2023-02-28T09:31:22;101515.59;;;16.94;23.84
38227;BME280;24026;49.446;8.576;2023-02-28T09:33:42;101508.09;;;16.91;23.63
38227;BME280;24026;49.446;8.576;2023-02-28T09:36:03;101517.16;;;16.84;23.86
38227;BME280;24026;49.446;8.576;2023-02-28T09:38:24;101509.09;;;16.84;23.88
38227;BME280;24026;49.446;8.576;2023-02-28T09:40:52;101512.00;;;16.83;23.70
38227;BME280;24026;49.446;8.576;2023-02-28T09:43:14;101499.09;;;16.80;23.71
38227;BME280;24026;49.446;8.576;2023-02-28T09:45:39;101503.41;;;16.81;23.83
38227;BME280;24026;49.446;8.576;2023-02-28T09:48:09;101507.41;;;16.78;23.67
38227;BME280;24026;49.446;8.576;2023-02-28T09:50:35;101511.69;;;16.74;23.91
38227;BME280;24026;49.446;8.576;2023-02-28T09:52:58;101513.00;;;16.72;23.84
38227;BME280;24026;49.446;8.576;2023-02-28T09:55:38;101504.09;;;16.66;23.81
38227;BME280;24026;49.446;8.576;2023-02-28T09:58:00;101509.22;;;16.67;23.88
38227;BME280;24026;49.446;8.576;2023-02-28T10:00:36;101502.41;;;16.60;23.97
38227;BME280;24026;49.446;8.576;2023-02-28T10:08:33;101501.31;;;16.56;24.04
38227;BME280;24026;49.446;8.576;2023-02-28T10:10:59;101507.75;;;16.55;24.13
38227;BME280;24026;49.446;8.576;2023-02-28T10:13:25;101506.34;;;16.52;24.01
38227;BME280;24026;49.446;8.576;2023-02-28T10:15:48;101506.06;;;16.48;24.05
38227;BME280;24026;49.446;8.576;2023-02-28T10:18:14;101498.84;;;16.49;24.04
38227;BME280;24026;49.446;8.576;2023-02-28T10:20:39;101503.25;;;16.33;24.29
38227;BME280;24026;49.446;8.576;2023-02-28T10:25:37;101510.28;;;16.39;24.24
38227;BME280;24026;49.446;8.576;2023-02-28T10:28:10;101502.06;;;16.51;24.17
38227;BME280;24026;49.446;8.576;2023-02-28T10:30:31;101504.34;;;16.64;23.94
38227;BME280;24026;49.446;8.576;2023-02-28T10:32:53;101507.44;;;16.83;23.71
38227;BME280;24026;49.446;8.576;2023-02-28T10:35:15;101508.13;;;16.96;23.45
38227;BME280;24026;49.446;8.576;2023-02-28T10:37:40;101502.84;;;17.11;23.46
38227;BME280;24026;49.446;8.576;2023-02-28T10:40:01;101497.59;;;17.32;23.07
38227;BME280;24026;49.446;8.576;2023-02-28T10:42:26;101499.31;;;17.48;23.08
38227;BME280;24026;49.446;8.576;2023-02-28T10:44:47;101500.72;;;17.61;22.96
38227;BME280;24026;49.446;8.576;2023-02-28T10:47:14;101505.06;;;17.72;22.79
38227;BME280;24026;49.446;8.576;2023-02-28T10:49:36;101503.25;;;17.83;22.66
38227;BME280;24026;49.446;8.576;2023-02-28T10:52:00;101494.97;;;17.95;22.49
38227;BME280;24026;49.446;8.576;2023-02-28T10:54:35;101494.16;;;17.94;22.56
38227;BME280;24026;49.446;8.576;2023-02-28T10:57:19;101487.97;;;17.94;22.51
38227;BME280;24026;49.446;8.576;2023-02-28T10:59:39;101498.97;;;17.92;22.64
38227;BME280;24026;49.446;8.576;2023-02-28T11:02:00;101492.22;;;17.85;22.66
38227;BME280;24026;49.446;8.576;2023-02-28T11:07:01;101487.34;;;17.76;22.81
38227;BME280;24026;49.446;8.576;2023-02-28T11:09:28;101488.66;;;17.74;22.80
38227;BME280;24026;49.446;8.576;2023-02-28T11:11:50;101497.31;;;17.76;22.71
38227;BME280;24026;49.446;8.576;2023-02-28T11:14:33;101493.75;;;17.65;22.80
38227;BME280;24026;49.446;8.576;2023-02-28T11:16:58;101479.25;;;17.66;22.89
38227;BME280;24026;49.446;8.576;2023-02-28T11:19:25;101479.78;;;17.63;22.81
38227;BME280;24026;49.446;8.576;2023-02-28T11:21:52;101484.00;;;17.49;22.85
38227;BME280;24026;49.446;8.576;2023-02-28T11:24:33;101471.38;;;17.49;23.00
38227;BME280;24026;49.446;8.576;2023-02-28T11:26:55;101484.28;;;17.52;23.13
38227;BME280;24026;49.446;8.576;2023-02-28T11:31:41;101478.34;;;17.45;23.22
38227;BME280;24026;49.446;8.576;2023-02-28T11:34:26;101471.59;;;17.37;23.28
38227;BME280;24026;49.446;8.576;2023-02-28T11:36:54;101469.97;;;17.36;23.14
38227;BME280;24026;49.446;8.576;2023-02-28T11:39:17;101471.84;;;17.36;23.21
38227;BME280;24026;49.446;8.576;2023-02-28T11:42:10;101469.41;;;17.29;23.05
38227;BME280;24026;49.446;8.576;2023-02-28T11:47:15;101465.31;;;17.21;23.22
38227;BME280;24026;49.446;8.576;2023-02-28T11:58:00;101465.75;;;17.03;23.67
38227;BME280;24026;49.446;8.576;2023-02-28T12:14:10;101469.94;;;16.89;24.02
38227;BME280;24026;49.446;8.576;2023-02-28T12:26:58;101465.22;;;16.74;24.23
38227;BME280;24026;49.446;8.576;2023-02-28T12:29:29;101461.81;;;16.83;24.07
38227;BME280;24026;49.446;8.576;2023-02-28T12:31:58;101457.41;;;16.99;23.69
38227;BME280;24026;49.446;8.576;2023-02-28T12:34:22;101456.44;;;17.16;23.25
38227;BME280;24026;49.446;8.576;2023-02-28T12:36:45;101457.06;;;17.33;23.23
38227;BME280;24026;49.446;8.576;2023-02-28T12:39:15;101455.78;;;17.51;22.93
38227;BME280;24026;49.446;8.576;2023-02-28T12:41:54;101457.75;;;17.66;22.89
38227;BME280;24026;49.446;8.576;2023-02-28T12:44:23;101454.31;;;17.81;22.54
38227;BME280;24026;49.446;8.576;2023-02-28T12:46:49;101454.91;;;17.93;22.43
38227;BME280;24026;49.446;8.576;2023-02-28T12:49:33;101456.53;;;18.05;22.35
38227;BME280;24026;49.446;8.576;2023-02-28T12:51:54;101457.09;;;18.12;22.23
38227;BME280;24026;49.446;8.576;2023-02-28T12:54:25;101451.69;;;18.12;22.35
38227;BME280;24026;49.446;8.576;2023-02-28T12:57:06;101454.13;;;18.03;22.38
38227;BME280;24026;49.446;8.576;2023-02-28T12:59:34;101446.03;;;18.03;22.32
38227;BME280;24026;49.446;8.576;2023-02-28T13:02:22;101444.13;;;17.93;22.62
38227;BME280;24026;49.446;8.576;2023-02-28T13:10:08;101439.22;;;17.80;22.85
38227;BME280;24026;49.446;8.576;2023-02-28T13:12:29;101445.13;;;17.72;22.79
38227;BME280;24026;49.446;8.576;2023-02-28T13:14:50;101439.72;;;17.62;22.94
38227;BME280;24026;49.446;8.576;2023-02-28T13:17:23;101429.19;;;17.55;23.16
38227;BME280;24026;49.446;8.576;2023-02-28T13:22:16;101430.97;;;17.34;23.27
38227;BME280;24026;49.446;8.576;2023-02-28T13:24:44;101436.09;;;17.35;23.25
38227;BME280;24026;49.446;8.576;2023-02-28T13:29:35;101430.97;;;17.29;23.29
38227;BME280;24026;49.446;8.576;2023-02-28T13:34:28;101425.28;;;17.20;23.34
38227;BME280;24026;49.446;8.576;2023-02-28T13:36:48;101430.91;;;17.18;23.70
38227;BME280;24026;49.446;8.576;2023-02-28T13:41:54;101438.13;;;17.08;23.72
38227;BME280;24026;49.446;8.576;2023-02-28T13:44:22;101439.16;;;17.01;23.74
38227;BME280;24026;49.446;8.576;2023-02-28T13:51:47;101436.13;;;16.93;23.98
38227;BME280;24026;49.446;8.576;2023-02-28T13:54:18;101436.91;;;16.88;24.10
38227;BME280;24026;49.446;8.576;2023-02-28T14:02:22;101434.38;;;16.76;24.10
38227;BME280;24026;49.446;8.576;2023-02-28T14:04:59;101435.16;;;16.72;24.22
38227;BME280;24026;49.446;8.576;2023-02-28T14:07:23;101433.00;;;16.74;24.37
38227;BME280;24026;49.446;8.576;2023-02-28T14:09:52;101431.94;;;16.75;24.18